sensor_id;sensor_type;location;lat;lon;timestamp;temperature;humidity
7574;DHT22;3828;48.922;9.116;2023-02-08T00:02:00;-3.40;99.90
7574;DHT22;3828;48.922;9.116;2023-02-08T00:04:27;-3.40;99.90
7574;DHT22;3828;48.922;9.116;2023-02-08T00:06:55;-1.20;99.90
7574;DHT22;3828;48.922;9.116;2023-02-08T00:09:21;-3.50;99.90
7574;DHT22;3828;48.922;9.116;2023-02-08T00:11:51;-3.50;99.90
7574;DHT22;3828;48.922;9.116;2023-02-08T00:14:18;-3.50;99.90
7574;DHT22;3828;48.922;9.116;2023-02-08T00:16:44;-3.50;99.90
7574;DHT22;3828;48.922;9.116;2023-02-08T00:19:11;-3.60;99.90
7574;DHT22;3828;48.922;9.116;2023-02-08T00:21:38;-3.60;99.90
7574;DHT22;3828;48.922;9.116;2023-02-08T00:24:05;-3.60;99.90
7574;DHT22;3828;48.922;9.116;2023-02-08T00:26:32;-3.60;99.90
7574;DHT22;3828;48.922;9.116;2023-02-08T00:29:00;-3.70;99.90
7574;DHT22;3828;48.922;9.116;2023-02-08T00:31:27;-3.70;99.90
7574;DHT22;3828;48.922;9.116;2023-02-08T00:33:54;-3.70;99.90
7574;DHT22;3828;48.922;9.116;2023-02-08T00:36:21;-3.70;99.90
7574;DHT22;3828;48.922;9.116;2023-02-08T00:38:48;-3.70;99.90
7574;DHT22;3828;48.922;9.116;2023-02-08T00:41:18;-3.70;99.90
7574;DHT22;3828;48.922;9.116;2023-02-08T00:43:54;-3.70;99.90
7574;DHT22;3828;48.922;9.116;2023-02-08T00:46:24;-3.70;99.90
7574;DHT22;3828;48.922;9.116;2023-02-08T00:48:51;-3.70;99.90
7574;DHT22;3828;48.922;9.116;2023-02-08T00:51:18;-3.70;99.90
7574;DHT22;3828;48.922;9.116;2023-02-08T00:53:46;-3.80;99.90
7574;DHT22;3828;48.922;9.116;2023-02-08T00:56:14;-3.80;99.90
7574;DHT22;3828;48.922;9.116;2023-02-08T00:58:41;-3.70;99.90
7574;DHT22;3828;48.922;9.116;2023-02-08T01:01:08;-3.70;99.90
7574;DHT22;3828;48.922;9.116;2023-02-08T01:03:38;-3.70;99.90
7574;DHT22;3828;48.922;9.116;2023-02-08T01:06:07;-3.70;99.90
7574;DHT22;3828;48.922;9.116;2023-02-08T01:08:34;-3.70;99.90
7574;DHT22;3828;48.922;9.116;2023-02-08T01:11:03;-3.80;99.90
7574;DHT22;3828;48.922;9.116;2023-02-08T01:13:30;-3.80;99.90
7574;DHT22;3828;48.922;9.116;2023-02-08T01:16:05;-3.80;99.90
7574;DHT22;3828;48.922;9.116;2023-02-08T01:18:32;-3.90;99.90
7574;DHT22;3828;48.922;9.116;2023-02-08T01:21:05;-3.90;99.90
7574;DHT22;3828;48.922;9.116;2023-02-08T01:23:32;-3.90;99.90
7574;DHT22;3828;48.922;9.116;2023-02-08T01:26:00;-4.00;99.90
7574;DHT22;3828;48.922;9.116;2023-02-08T01:28:27;-4.00;99.90
7574;DHT22;3828;48.922;9.116;2023-02-08T01:30:54;-4.00;99.90
7574;DHT22;3828;48.922;9.116;2023-02-08T01:33:22;-4.00;99.90
7574;DHT22;3828;48.922;9.116;2023-02-08T01:35:51;-4.10;99.90
7574;DHT22;3828;48.922;9.116;2023-02-08T01:38:20;-4.10;99.90
7574;DHT22;3828;48.922;9.116;2023-02-08T01:43:19;-4.10;99.90
7574;DHT22;3828;48.922;9.116;2023-02-08T01:48:17;-4.20;99.90
7574;DHT22;3828;48.922;9.116;2023-02-08T01:50:51;-4.20;99.90
7574;DHT22;3828;48.922;9.116;2023-02-08T01:53:22;-4.20;99.90
7574;DHT22;3828;48.922;9.116;2023-02-08T01:55:53;-4.20;99.90
7574;DHT22;3828;48.922;9.116;2023-02-08T01:58:22;-4.20;99.90
7574;DHT22;3828;48.922;9.116;2023-02-08T02:00:50;-4.30;99.90
7574;DHT22;3828;48.922;9.116;2023-02-08T02:03:18;-4.30;99.90
7574;DHT22;3828;48.922;9.116;2023-02-08T02:05:53;-4.30;99.90
7574;DHT22;3828;48.922;9.116;2023-02-08T02:08:22;-4.30;99.90
7574;DHT22;3828;48.922;9.116;2023-02-08T02:10:49;-4.30;99.90
7574;DHT22;3828;48.922;9.116;2023-02-08T02:13:18;-4.30;99.90
7574;DHT22;3828;48.922;9.116;2023-02-08T02:15:49;-4.40;99.90
7574;DHT22;3828;48.922;9.116;2023-02-08T02:18:31;-4.40;99.90
7574;DHT22;3828;48.922;9.116;2023-02-08T02:21:25;-4.40;99.90
7574;DHT22;3828;48.922;9.116;2023-02-08T02:24:29;-4.40;99.90
7574;DHT22;3828;48.922;9.116;2023-02-08T02:27:25;-4.40;99.90
7574;DHT22;3828;48.922;9.116;2023-02-08T02:30:40;-4.40;99.90
7574;DHT22;3828;48.922;9.116;2023-02-08T02:33:40;-4.50;99.90
7574;DHT22;3828;48.922;9.116;2023-02-08T02:36:18;-4.50;99.90
7574;DHT22;3828;48.922;9.116;2023-02-08T02:39:02;-4.50;99.90
7574;DHT22;3828;48.922;9.116;2023-02-08T02:41:39;-4.50;99.90
7574;DHT22;3828;48.922;9.116;2023-02-08T02:44:36;-4.50;99.90
7574;DHT22;3828;48.922;9.116;2023-02-08T02:47:10;-5.60;99.90
7574;DHT22;3828;48.922;9.116;2023-02-08T02:49:46;-4.50;99.90
7574;DHT22;3828;48.922;9.116;2023-02-08T02:52:18;-3.50;99.90
7574;DHT22;3828;48.922;9.116;2023-02-08T02:54:50;-4.50;99.90
7574;DHT22;3828;48.922;9.116;2023-02-08T02:57:23;-4.50;99.90
7574;DHT22;3828;48.922;9.116;2023-02-08T02:59:51;-4.50;99.90
7574;DHT22;3828;48.922;9.116;2023-02-08T03:02:25;-4.50;99.90
7574;DHT22;3828;48.922;9.116;2023-02-08T03:04:56;-4.50;99.90
7574;DHT22;3828;48.922;9.116;2023-02-08T03:07:41;-1.80;99.90
7574;DHT22;3828;48.922;9.116;2023-02-08T03:10:22;-4.60;99.90
7574;DHT22;3828;48.922;9.116;2023-02-08T03:12:56;-4.60;99.90
7574;DHT22;3828;48.922;9.116;2023-02-08T03:15:32;-4.60;99.90
7574;DHT22;3828;48.922;9.116;2023-02-08T03:18:15;-4.60;99.90
7574;DHT22;3828;48.922;9.116;2023-02-08T03:20:52;-4.70;99.90
7574;DHT22;3828;48.922;9.116;2023-02-08T03:23:27;-4.60;99.90
7574;DHT22;3828;48.922;9.116;2023-02-08T03:26:06;-4.60;99.90
7574;DHT22;3828;48.922;9.116;2023-02-08T03:28:38;-4.60;99.90
7574;DHT22;3828;48.922;9.116;2023-02-08T03:31:11;-4.60;99.90
7574;DHT22;3828;48.922;9.116;2023-02-08T03:33:45;-4.60;99.90
7574;DHT22;3828;48.922;9.116;2023-02-08T03:36:20;-4.60;99.90
7574;DHT22;3828;48.922;9.116;2023-02-08T03:38:49;-4.60;99.90
7574;DHT22;3828;48.922;9.116;2023-02-08T03:41:23;-4.60;99.90
7574;DHT22;3828;48.922;9.116;2023-02-08T03:43:57;-4.60;99.90
7574;DHT22;3828;48.922;9.116;2023-02-08T03:46:27;-4.70;99.90
7574;DHT22;3828;48.922;9.116;2023-02-08T03:48:59;-4.70;99.90
7574;DHT22;3828;48.922;9.116;2023-02-08T03:51:32;-4.70;99.90
7574;DHT22;3828;48.922;9.116;2023-02-08T03:54:07;-4.70;99.90
7574;DHT22;3828;48.922;9.116;2023-02-08T03:56:39;-4.70;99.90
7574;DHT22;3828;48.922;9.116;2023-02-08T03:59:12;-4.70;99.90
7574;DHT22;3828;48.922;9.116;2023-02-08T04:01:43;-4.80;99.90
7574;DHT22;3828;48.922;9.116;2023-02-08T04:04:13;-4.70;99.90
7574;DHT22;3828;48.922;9.116;2023-02-08T04:06:43;-4.80;99.90
7574;DHT22;3828;48.922;9.116;2023-02-08T04:09:12;-4.80;99.90
7574;DHT22;3828;48.922;9.116;2023-02-08T04:11:39;-4.80;99.90
7574;DHT22;3828;48.922;9.116;2023-02-08T04:14:06;-4.90;99.90
7574;DHT22;3828;48.922;9.116;2023-02-08T04:16:33;-4.80;99.90
7574;DHT22;3828;48.922;9.116;2023-02-08T04:19:00;-4.80;99.90
7574;DHT22;3828;48.922;9.116;2023-02-08T04:23:55;-4.90;99.90
7574;DHT22;3828;48.922;9.116;2023-02-08T04:28:49;-4.90;99.90
7574;DHT22;3828;48.922;9.116;2023-02-08T04:31:16;-4.90;99.90
7574;DHT22;3828;48.922;9.116;2023-02-08T04:33:42;-4.90;99.90
7574;DHT22;3828;48.922;9.116;2023-02-08T04:36:09;-4.90;99.90
7574;DHT22;3828;48.922;9.116;2023-02-08T04:38:36;-4.90;99.90
7574;DHT22;3828;48.922;9.116;2023-02-08T04:41:05;-5.00;99.90
7574;DHT22;3828;48.922;9.116;2023-02-08T04:43:31;-5.00;99.90
7574;DHT22;3828;48.922;9.116;2023-02-08T04:45:58;-5.00;99.90
7574;DHT22;3828;48.922;9.116;2023-02-08T04:48:25;-5.10;99.90
7574;DHT22;3828;48.922;9.116;2023-02-08T04:50:54;-5.10;99.90
7574;DHT22;3828;48.922;9.116;2023-02-08T04:53:21;-5.10;99.90
7574;DHT22;3828;48.922;9.116;2023-02-08T04:55:48;-5.10;99.90
7574;DHT22;3828;48.922;9.116;2023-02-08T04:58:16;-5.10;99.90
7574;DHT22;3828;48.922;9.116;2023-02-08T05:03:10;-5.10;99.90
7574;DHT22;3828;48.922;9.116;2023-02-08T05:05:37;-5.10;99.90
7574;DHT22;3828;48.922;9.116;2023-02-08T05:08:04;-5.20;99.90
7574;DHT22;3828;48.922;9.116;2023-02-08T05:10:30;-5.20;99.90
7574;DHT22;3828;48.922;9.116;2023-02-08T05:12:57;-5.20;99.90
7574;DHT22;3828;48.922;9.116;2023-02-08T05:15:26;-5.20;99.90
7574;DHT22;3828;48.922;9.116;2023-02-08T05:17:53;-5.20;99.90
7574;DHT22;3828;48.922;9.116;2023-02-08T05:20:19;-5.30;99.90
7574;DHT22;3828;48.922;9.116;2023-02-08T05:22:47;-5.30;99.90
7574;DHT22;3828;48.922;9.116;2023-02-08T05:25:13;-5.30;99.90
7574;DHT22;3828;48.922;9.116;2023-02-08T05:27:42;-5.30;99.90
7574;DHT22;3828;48.922;9.116;2023-02-08T05:30:10;-5.30;99.90
7574;DHT22;3828;48.922;9.116;2023-02-08T05:32:38;-5.30;99.90
7574;DHT22;3828;48.922;9.116;2023-02-08T05:35:06;-5.30;99.90
7574;DHT22;3828;48.922;9.116;2023-02-08T05:37:32;-5.30;99.90
7574;DHT22;3828;48.922;9.116;2023-02-08T05:39:59;-5.30;99.90
7574;DHT22;3828;48.922;9.116;2023-02-08T05:44:53;-5.40;99.90
7574;DHT22;3828;48.922;9.116;2023-02-08T05:47:20;-5.40;99.90
7574;DHT22;3828;48.922;9.116;2023-02-08T05:49:48;-5.30;99.90
7574;DHT22;3828;48.922;9.116;2023-02-08T05:52:15;-5.40;99.90
7574;DHT22;3828;48.922;9.116;2023-02-08T05:54:42;-5.40;99.90
7574;DHT22;3828;48.922;9.116;2023-02-08T05:57:09;-5.30;99.90
7574;DHT22;3828;48.922;9.116;2023-02-08T06:02:03;-5.50;99.90
7574;DHT22;3828;48.922;9.116;2023-02-08T06:04:29;-5.40;99.90
7574;DHT22;3828;48.922;9.116;2023-02-08T06:06:57;-5.30;99.90
7574;DHT22;3828;48.922;9.116;2023-02-08T06:11:51;-5.40;99.90
7574;DHT22;3828;48.922;9.116;2023-02-08T06:14:18;-5.50;99.90
7574;DHT22;3828;48.922;9.116;2023-02-08T06:16:45;-5.40;99.90
7574;DHT22;3828;48.922;9.116;2023-02-08T06:21:39;-5.40;99.90
7574;DHT22;3828;48.922;9.116;2023-02-08T06:24:08;-5.50;99.90
7574;DHT22;3828;48.922;9.116;2023-02-08T06:29:03;-5.50;99.90
7574;DHT22;3828;48.922;9.116;2023-02-08T06:31:30;-5.50;99.90
7574;DHT22;3828;48.922;9.116;2023-02-08T06:38:51;-5.50;99.90
7574;DHT22;3828;48.922;9.116;2023-02-08T06:41:19;-5.50;99.90
7574;DHT22;3828;48.922;9.116;2023-02-08T06:48:40;-5.50;99.90
7574;DHT22;3828;48.922;9.116;2023-02-08T06:51:07;-5.50;99.90
7574;DHT22;3828;48.922;9.116;2023-02-08T06:53:34;-5.50;99.90
7574;DHT22;3828;48.922;9.116;2023-02-08T06:56:01;-5.50;99.90
7574;DHT22;3828;48.922;9.116;2023-02-08T06:58:29;-5.50;99.90
7574;DHT22;3828;48.922;9.116;2023-02-08T07:08:17;-5.30;99.90
7574;DHT22;3828;48.922;9.116;2023-02-08T07:15:40;-5.10;99.90
7574;DHT22;3828;48.922;9.116;2023-02-08T07:18:07;-5.10;99.90
7574;DHT22;3828;48.922;9.116;2023-02-08T07:20:35;-5.00;99.90
7574;DHT22;3828;48.922;9.116;2023-02-08T07:30:23;-4.90;99.90
7574;DHT22;3828;48.922;9.116;2023-02-08T07:32:51;-4.80;99.90
7574;DHT22;3828;48.922;9.116;2023-02-08T07:35:18;-4.80;99.90
7574;DHT22;3828;48.922;9.116;2023-02-08T07:37:45;-4.70;99.90
7574;DHT22;3828;48.922;9.116;2023-02-08T07:40:12;-4.60;99.90
7574;DHT22;3828;48.922;9.116;2023-02-08T07:42:39;-4.50;99.90
7574;DHT22;3828;48.922;9.116;2023-02-08T07:45:06;-4.40;99.90
7574;DHT22;3828;48.922;9.116;2023-02-08T07:47:33;-4.20;99.90
7574;DHT22;3828;48.922;9.116;2023-02-08T07:50:01;-4.20;99.90
7574;DHT22;3828;48.922;9.116;2023-02-08T07:52:28;-3.70;99.90
7574;DHT22;3828;48.922;9.116;2023-02-08T07:54:54;-3.30;99.90
7574;DHT22;3828;48.922;9.116;2023-02-08T07:57:21;-2.70;99.90
7574;DHT22;3828;48.922;9.116;2023-02-08T07:59:48;-2.40;99.90
7574;DHT22;3828;48.922;9.116;2023-02-08T08:02:15;-2.20;99.90
7574;DHT22;3828;48.922;9.116;2023-02-08T08:04:41;-1.80;99.90
7574;DHT22;3828;48.922;9.116;2023-02-08T08:07:10;-1.10;99.90
7574;DHT22;3828;48.922;9.116;2023-02-08T08:09:36;-0.50;99.90
7574;DHT22;3828;48.922;9.116;2023-02-08T08:12:03;0.10;99.90
7574;DHT22;3828;48.922;9.116;2023-02-08T08:14:30;0.40;99.90
7574;DHT22;3828;48.922;9.116;2023-02-08T08:16:57;1.00;99.90
7574;DHT22;3828;48.922;9.116;2023-02-08T08:19:24;1.30;99.90
7574;DHT22;3828;48.922;9.116;2023-02-08T08:21:51;2.00;99.90
7574;DHT22;3828;48.922;9.116;2023-02-08T08:24:20;2.80;99.90
7574;DHT22;3828;48.922;9.116;2023-02-08T08:26:47;3.40;99.90
7574;DHT22;3828;48.922;9.116;2023-02-08T08:29:14;3.70;99.90
7574;DHT22;3828;48.922;9.116;2023-02-08T08:31:42;4.10;99.90
7574;DHT22;3828;48.922;9.116;2023-02-08T08:34:09;4.80;99.90
7574;DHT22;3828;48.922;9.116;2023-02-08T08:36:36;8.10;99.90
7574;DHT22;3828;48.922;9.116;2023-02-08T08:39:03;7.20;99.90
7574;DHT22;3828;48.922;9.116;2023-02-08T08:41:31;5.20;99.90
7574;DHT22;3828;48.922;9.116;2023-02-08T08:43:58;5.40;99.90
7574;DHT22;3828;48.922;9.116;2023-02-08T08:46:25;6.90;99.90
7574;DHT22;3828;48.922;9.116;2023-02-08T08:48:52;5.30;99.90
7574;DHT22;3828;48.922;9.116;2023-02-08T08:51:19;5.70;99.90
7574;DHT22;3828;48.922;9.116;2023-02-08T08:53:46;5.30;99.90
7574;DHT22;3828;48.922;9.116;2023-02-08T08:56:13;7.80;99.90
7574;DHT22;3828;48.922;9.116;2023-02-08T08:58:41;8.90;99.90
7574;DHT22;3828;48.922;9.116;2023-02-08T09:01:10;4.60;99.90
7574;DHT22;3828;48.922;9.116;2023-02-08T09:03:38;3.90;99.90
7574;DHT22;3828;48.922;9.116;2023-02-08T09:06:05;3.90;99.90
7574;DHT22;3828;48.922;9.116;2023-02-08T09:08:32;4.10;99.90
7574;DHT22;3828;48.922;9.116;2023-02-08T09:11:04;3.90;99.90
7574;DHT22;3828;48.922;9.116;2023-02-08T09:13:31;4.50;99.90
7574;DHT22;3828;48.922;9.116;2023-02-08T09:16:03;4.10;99.90
7574;DHT22;3828;48.922;9.116;2023-02-08T09:18:30;4.30;99.90
7574;DHT22;3828;48.922;9.116;2023-02-08T09:20:57;7.30;99.90
7574;DHT22;3828;48.922;9.116;2023-02-08T09:23:24;4.40;99.90
7574;DHT22;3828;48.922;9.116;2023-02-08T09:25:50;7.60;99.90
7574;DHT22;3828;48.922;9.116;2023-02-08T09:28:17;5.00;99.90
7574;DHT22;3828;48.922;9.116;2023-02-08T09:30:44;5.20;99.90
7574;DHT22;3828;48.922;9.116;2023-02-08T09:33:12;5.50;99.90
7574;DHT22;3828;48.922;9.116;2023-02-08T09:35:39;5.90;99.90
7574;DHT22;3828;48.922;9.116;2023-02-08T09:38:06;7.80;99.90
7574;DHT22;3828;48.922;9.116;2023-02-08T09:40:40;6.90;99.90
7574;DHT22;3828;48.922;9.116;2023-02-08T09:43:11;8.30;99.90
7574;DHT22;3828;48.922;9.116;2023-02-08T09:45:46;7.40;99.90
7574;DHT22;3828;48.922;9.116;2023-02-08T09:48:19;7.90;99.90
7574;DHT22;3828;48.922;9.116;2023-02-08T09:50:51;8.70;99.90
7574;DHT22;3828;48.922;9.116;2023-02-08T09:53:22;11.20;99.90
7574;DHT22;3828;48.922;9.116;2023-02-08T09:55:53;13.20;99.90
7574;DHT22;3828;48.922;9.116;2023-02-08T09:58:25;9.60;99.90
7574;DHT22;3828;48.922;9.116;2023-02-08T10:00:53;9.80;99.00
7574;DHT22;3828;48.922;9.116;2023-02-08T10:03:29;9.70;99.90
7574;DHT22;3828;48.922;9.116;2023-02-08T10:05:57;10.20;97.50
7574;DHT22;3828;48.922;9.116;2023-02-08T10:08:26;10.70;97.30
7574;DHT22;3828;48.922;9.116;2023-02-08T10:10:55;11.20;96.30
7574;DHT22;3828;48.922;9.116;2023-02-08T10:13:39;12.00;95.90
7574;DHT22;3828;48.922;9.116;2023-02-08T10:16:17;11.00;93.40
7574;DHT22;3828;48.922;9.116;2023-02-08T10:18:55;11.50;93.20
7574;DHT22;3828;48.922;9.116;2023-02-08T10:21:39;10.70;92.70
7574;DHT22;3828;48.922;9.116;2023-02-08T10:24:26;10.20;93.10
7574;DHT22;3828;48.922;9.116;2023-02-08T10:27:05;10.50;92.50
7574;DHT22;3828;48.922;9.116;2023-02-08T10:29:56;11.60;93.60
7574;DHT22;3828;48.922;9.116;2023-02-08T10:32:42;11.20;91.40
7574;DHT22;3828;48.922;9.116;2023-02-08T10:35:13;11.90;91.80
7574;DHT22;3828;48.922;9.116;2023-02-08T10:37:42;14.70;92.40
7574;DHT22;3828;48.922;9.116;2023-02-08T10:40:23;12.10;89.40
7574;DHT22;3828;48.922;9.116;2023-02-08T10:42:57;15.60;92.60
7574;DHT22;3828;48.922;9.116;2023-02-08T10:45:28;10.60;89.60
7574;DHT22;3828;48.922;9.116;2023-02-08T10:48:01;11.50;90.00
7574;DHT22;3828;48.922;9.116;2023-02-08T10:50:34;12.50;90.40
7574;DHT22;3828;48.922;9.116;2023-02-08T10:53:01;15.50;91.30
7574;DHT22;3828;48.922;9.116;2023-02-08T10:55:30;13.10;90.00
7574;DHT22;3828;48.922;9.116;2023-02-08T10:58:00;12.70;87.20
7574;DHT22;3828;48.922;9.116;2023-02-08T11:00:30;16.00;90.50
7574;DHT22;3828;48.922;9.116;2023-02-08T11:03:01;16.50;91.10
7574;DHT22;3828;48.922;9.116;2023-02-08T11:05:35;13.20;87.60
7574;DHT22;3828;48.922;9.116;2023-02-08T11:08:07;13.60;87.50
7574;DHT22;3828;48.922;9.116;2023-02-08T11:10:34;14.20;85.20
7574;DHT22;3828;48.922;9.116;2023-02-08T11:13:04;14.20;82.90
7574;DHT22;3828;48.922;9.116;2023-02-08T11:15:37;13.80;84.40
7574;DHT22;3828;48.922;9.116;2023-02-08T11:18:05;13.90;83.60
7574;DHT22;3828;48.922;9.116;2023-02-08T11:20:35;14.30;85.70
7574;DHT22;3828;48.922;9.116;2023-02-08T11:23:14;14.20;81.50
7574;DHT22;3828;48.922;9.116;2023-02-08T11:25:43;14.10;82.70
7574;DHT22;3828;48.922;9.116;2023-02-08T11:28:22;14.20;83.70
7574;DHT22;3828;48.922;9.116;2023-02-08T11:30:58;15.10;82.80
7574;DHT22;3828;48.922;9.116;2023-02-08T11:33:26;13.50;81.10
7574;DHT22;3828;48.922;9.116;2023-02-08T11:36:01;13.80;81.00
7574;DHT22;3828;48.922;9.116;2023-02-08T11:38:31;14.80;81.40
7574;DHT22;3828;48.922;9.116;2023-02-08T11:41:00;12.70;81.30
7574;DHT22;3828;48.922;9.116;2023-02-08T11:43:29;12.60;82.20
7574;DHT22;3828;48.922;9.116;2023-02-08T11:45:58;14.50;82.50
7574;DHT22;3828;48.922;9.116;2023-02-08T11:48:32;13.50;80.70
7574;DHT22;3828;48.922;9.116;2023-02-08T11:51:02;17.10;82.10
7574;DHT22;3828;48.922;9.116;2023-02-08T11:53:31;14.30;79.80
7574;DHT22;3828;48.922;9.116;2023-02-08T11:56:04;18.10;84.50
7574;DHT22;3828;48.922;9.116;2023-02-08T11:58:32;13.90;79.20
7574;DHT22;3828;48.922;9.116;2023-02-08T12:01:02;13.50;78.80
7574;DHT22;3828;48.922;9.116;2023-02-08T12:03:34;14.00;80.00
7574;DHT22;3828;48.922;9.116;2023-02-08T12:06:28;14.40;81.00
7574;DHT22;3828;48.922;9.116;2023-02-08T12:09:06;14.10;78.20
7574;DHT22;3828;48.922;9.116;2023-02-08T12:11:39;17.00;79.80
7574;DHT22;3828;48.922;9.116;2023-02-08T12:14:25;14.10;77.10
7574;DHT22;3828;48.922;9.116;2023-02-08T12:17:14;14.00;78.30
7574;DHT22;3828;48.922;9.116;2023-02-08T12:20:01;14.00;79.00
7574;DHT22;3828;48.922;9.116;2023-02-08T12:22:30;13.70;77.60
7574;DHT22;3828;48.922;9.116;2023-02-08T12:25:05;17.10;82.00
7574;DHT22;3828;48.922;9.116;2023-02-08T12:27:43;14.50;80.20
7574;DHT22;3828;48.922;9.116;2023-02-08T12:30:19;14.70;76.70
7574;DHT22;3828;48.922;9.116;2023-02-08T12:33:06;14.80;74.30
7574;DHT22;3828;48.922;9.116;2023-02-08T12:36:01;14.70;74.00
7574;DHT22;3828;48.922;9.116;2023-02-08T12:38:51;13.90;77.20
7574;DHT22;3828;48.922;9.116;2023-02-08T12:41:45;13.30;75.70
7574;DHT22;3828;48.922;9.116;2023-02-08T12:44:23;12.60;79.10
7574;DHT22;3828;48.922;9.116;2023-02-08T12:47:01;17.00;81.30
7574;DHT22;3828;48.922;9.116;2023-02-08T12:49:53;13.50;76.60
7574;DHT22;3828;48.922;9.116;2023-02-08T12:52:30;14.30;77.30
7574;DHT22;3828;48.922;9.116;2023-02-08T12:55:08;14.30;78.80
7574;DHT22;3828;48.922;9.116;2023-02-08T12:57:41;14.30;79.00
7574;DHT22;3828;48.922;9.116;2023-02-08T13:00:16;17.90;79.30
7574;DHT22;3828;48.922;9.116;2023-02-08T13:02:49;13.00;73.80
7574;DHT22;3828;48.922;9.116;2023-02-08T13:05:23;16.10;79.10
7574;DHT22;3828;48.922;9.116;2023-02-08T13:07:56;12.10;75.60
7574;DHT22;3828;48.922;9.116;2023-02-08T13:10:28;11.50;77.20
7574;DHT22;3828;48.922;9.116;2023-02-08T13:13:00;15.00;83.50
7574;DHT22;3828;48.922;9.116;2023-02-08T13:15:36;10.50;80.10
7574;DHT22;3828;48.922;9.116;2023-02-08T13:18:11;14.40;81.70
7574;DHT22;3828;48.922;9.116;2023-02-08T13:20:40;10.80;76.80
7574;DHT22;3828;48.922;9.116;2023-02-08T13:23:17;10.90;78.80
7574;DHT22;3828;48.922;9.116;2023-02-08T13:25:47;10.40;78.60
7574;DHT22;3828;48.922;9.116;2023-02-08T13:28:18;9.90;82.10
7574;DHT22;3828;48.922;9.116;2023-02-08T13:30:55;9.90;81.80
7574;DHT22;3828;48.922;9.116;2023-02-08T13:33:30;9.70;83.00
7574;DHT22;3828;48.922;9.116;2023-02-08T13:35:58;13.90;87.70
7574;DHT22;3828;48.922;9.116;2023-02-08T13:38:28;9.60;83.50
7574;DHT22;3828;48.922;9.116;2023-02-08T13:41:07;11.30;84.60
7574;DHT22;3828;48.922;9.116;2023-02-08T13:43:42;9.90;83.90
7574;DHT22;3828;48.922;9.116;2023-02-08T13:46:12;11.40;83.20
7574;DHT22;3828;48.922;9.116;2023-02-08T13:48:45;8.10;82.40
7574;DHT22;3828;48.922;9.116;2023-02-08T13:54:24;7.30;83.90
7574;DHT22;3828;48.922;9.116;2023-02-08T13:56:53;7.10;85.30
7574;DHT22;3828;48.922;9.116;2023-02-08T13:59:34;6.80;83.60
7574;DHT22;3828;48.922;9.116;2023-02-08T14:02:22;6.50;86.30
7574;DHT22;3828;48.922;9.116;2023-02-08T14:04:51;6.20;88.00
7574;DHT22;3828;48.922;9.116;2023-02-08T14:07:37;5.90;86.80
7574;DHT22;3828;48.922;9.116;2023-02-08T14:10:16;5.70;90.30
7574;DHT22;3828;48.922;9.116;2023-02-08T14:12:52;5.60;90.70
7574;DHT22;3828;48.922;9.116;2023-02-08T14:15:25;5.50;91.00
7574;DHT22;3828;48.922;9.116;2023-02-08T14:17:54;5.40;90.80
7574;DHT22;3828;48.922;9.116;2023-02-08T14:20:27;5.30;91.90
7574;DHT22;3828;48.922;9.116;2023-02-08T14:22:56;5.20;92.30
7574;DHT22;3828;48.922;9.116;2023-02-08T14:25:28;6.40;93.10
7574;DHT22;3828;48.922;9.116;2023-02-08T14:27:58;5.20;92.50
7574;DHT22;3828;48.922;9.116;2023-02-08T14:30:27;5.20;90.90
7574;DHT22;3828;48.922;9.116;2023-02-08T14:33:11;5.20;91.80
7574;DHT22;3828;48.922;9.116;2023-02-08T14:35:51;5.10;91.90
7574;DHT22;3828;48.922;9.116;2023-02-08T14:39:04;4.90;91.80
7574;DHT22;3828;48.922;9.116;2023-02-08T14:41:43;5.00;92.70
7574;DHT22;3828;48.922;9.116;2023-02-08T14:50:33;4.70;94.80
7574;DHT22;3828;48.922;9.116;2023-02-08T14:53:04;4.70;95.00
7574;DHT22;3828;48.922;9.116;2023-02-08T14:55:40;4.60;95.40
7574;DHT22;3828;48.922;9.116;2023-02-08T14:58:11;4.50;95.70
7574;DHT22;3828;48.922;9.116;2023-02-08T15:00:42;4.50;96.70
7574;DHT22;3828;48.922;9.116;2023-02-08T15:03:14;4.50;97.30
7574;DHT22;3828;48.922;9.116;2023-02-08T15:05:57;4.40;97.70
7574;DHT22;3828;48.922;9.116;2023-02-08T15:08:28;4.30;97.50
7574;DHT22;3828;48.922;9.116;2023-02-08T15:10:55;4.30;97.30
7574;DHT22;3828;48.922;9.116;2023-02-08T15:13:23;4.30;97.80
7574;DHT22;3828;48.922;9.116;2023-02-08T15:15:53;4.20;95.90
7574;DHT22;3828;48.922;9.116;2023-02-08T15:18:23;4.20;96.20
7574;DHT22;3828;48.922;9.116;2023-02-08T15:21:00;4.20;96.50
7574;DHT22;3828;48.922;9.116;2023-02-08T15:23:28;4.30;97.60
7574;DHT22;3828;48.922;9.116;2023-02-08T15:25:59;4.40;97.80
7574;DHT22;3828;48.922;9.116;2023-02-08T15:28:27;4.70;97.70
7574;DHT22;3828;48.922;9.116;2023-02-08T15:30:56;5.20;96.10
7574;DHT22;3828;48.922;9.116;2023-02-08T15:33:24;5.30;96.40
7574;DHT22;3828;48.922;9.116;2023-02-08T15:35:57;6.10;95.00
7574;DHT22;3828;48.922;9.116;2023-02-08T15:38:25;6.70;94.00
7574;DHT22;3828;48.922;9.116;2023-02-08T15:41:04;7.40;92.90
7574;DHT22;3828;48.922;9.116;2023-02-08T15:43:34;7.50;91.90
7574;DHT22;3828;48.922;9.116;2023-02-08T15:46:03;7.50;91.70
7574;DHT22;3828;48.922;9.116;2023-02-08T15:48:31;7.40;92.20
7574;DHT22;3828;48.922;9.116;2023-02-08T15:51:00;6.70;92.60
7574;DHT22;3828;48.922;9.116;2023-02-08T15:53:28;5.00;94.70
7574;DHT22;3828;48.922;9.116;2023-02-08T15:55:57;4.50;96.60
7574;DHT22;3828;48.922;9.116;2023-02-08T15:58:29;4.20;96.80
7574;DHT22;3828;48.922;9.116;2023-02-08T16:00:58;3.90;97.50
7574;DHT22;3828;48.922;9.116;2023-02-08T16:03:27;3.70;98.20
7574;DHT22;3828;48.922;9.116;2023-02-08T16:05:56;3.60;99.70
7574;DHT22;3828;48.922;9.116;2023-02-08T16:08:27;3.60;99.90
7574;DHT22;3828;48.922;9.116;2023-02-08T16:10:57;3.30;99.90
7574;DHT22;3828;48.922;9.116;2023-02-08T16:13:27;3.20;99.90
7574;DHT22;3828;48.922;9.116;2023-02-08T16:16:12;3.00;99.90
7574;DHT22;3828;48.922;9.116;2023-02-08T16:18:41;2.90;99.90
7574;DHT22;3828;48.922;9.116;2023-02-08T16:21:25;2.80;99.90
7574;DHT22;3828;48.922;9.116;2023-02-08T16:23:55;2.80;99.90
7574;DHT22;3828;48.922;9.116;2023-02-08T16:26:25;2.70;99.90
7574;DHT22;3828;48.922;9.116;2023-02-08T16:28:54;2.60;99.90
7574;DHT22;3828;48.922;9.116;2023-02-08T16:31:24;2.60;99.90
7574;DHT22;3828;48.922;9.116;2023-02-08T16:33:58;2.50;99.90
7574;DHT22;3828;48.922;9.116;2023-02-08T16:36:30;2.40;99.90
7574;DHT22;3828;48.922;9.116;2023-02-08T16:42:24;2.30;99.90
7574;DHT22;3828;48.922;9.116;2023-02-08T16:44:58;2.20;99.90
7574;DHT22;3828;48.922;9.116;2023-02-08T16:47:27;2.10;99.90
7574;DHT22;3828;48.922;9.116;2023-02-08T16:50:00;2.00;99.90
7574;DHT22;3828;48.922;9.116;2023-02-08T16:52:26;2.00;99.90
7574;DHT22;3828;48.922;9.116;2023-02-08T16:54:55;1.90;99.90
7574;DHT22;3828;48.922;9.116;2023-02-08T16:57:23;1.60;99.90
7574;DHT22;3828;48.922;9.116;2023-02-08T16:59:50;1.80;99.90
7574;DHT22;3828;48.922;9.116;2023-02-08T17:02:30;1.70;99.90
7574;DHT22;3828;48.922;9.116;2023-02-08T17:05:03;1.40;99.90
7574;DHT22;3828;48.922;9.116;2023-02-08T17:07:33;1.60;99.90
7574;DHT22;3828;48.922;9.116;2023-02-08T17:10:05;1.60;99.90
7574;DHT22;3828;48.922;9.116;2023-02-08T17:12:33;1.60;99.90
7574;DHT22;3828;48.922;9.116;2023-02-08T17:14:59;1.50;99.90
7574;DHT22;3828;48.922;9.116;2023-02-08T17:17:26;1.50;99.90
7574;DHT22;3828;48.922;9.116;2023-02-08T17:19:53;1.40;99.90
7574;DHT22;3828;48.922;9.116;2023-02-08T17:22:19;1.40;99.90
7574;DHT22;3828;48.922;9.116;2023-02-08T17:27:15;1.30;99.90
7574;DHT22;3828;48.922;9.116;2023-02-08T17:29:41;1.20;99.90
7574;DHT22;3828;48.922;9.116;2023-02-08T17:32:08;1.20;99.90
7574;DHT22;3828;48.922;9.116;2023-02-08T17:34:35;1.10;99.90
7574;DHT22;3828;48.922;9.116;2023-02-08T17:37:04;1.10;99.90
7574;DHT22;3828;48.922;9.116;2023-02-08T17:39:31;1.00;99.90
7574;DHT22;3828;48.922;9.116;2023-02-08T17:44:26;0.90;99.90
7574;DHT22;3828;48.922;9.116;2023-02-08T17:49:20;0.80;99.90